Time;durP1;ratioP1;P1;durP2;ratioP2;P2;SDS_P1;SDS_P2;PMS_P1;PMS_P2;Temp;Humidity;BMP_temperature;BMP_pressure;BME280_temperature;BME280_humidity;BME280_pressure;Samples;Min_cycle;Max_cycle;Signal;HPM_P1;HPM_P2
2024/02/13 00:00:58;;;;;;;6.97;2.05;;;;;;;;;;5056248;28;20068;-55
2024/02/13 00:03:24;;;;;;;5.80;1.08;;;;;;;;;;5055889;28;20037;-56
2024/02/13 00:05:51;;;;;;;3.83;1.17;;;;;;;;;;5056428;28;20029;-57
2024/02/13 00:08:17;;;;;;;4.28;1.38;;;;;;;;;;5056447;28;20029;-56
2024/02/13 00:10:44;;;;;;;8.75;1.30;;;;;;;;;;5056647;28;20037;-57
2024/02/13 00:13:10;;;;;;;3.05;1.40;;;;;;;;;;5055804;28;20470;-58
2024/02/13 00:15:37;;;;;;;4.30;1.92;;;;;;;;;;5055708;28;20048;-57
2024/02/13 00:18:05;;;;;;;4.53;1.42;;;;;;;;;;5056224;28;20542;-57
2024/02/13 00:20:32;;;;;;;4.28;1.15;;;;;;;;;;5055582;28;20131;-57
2024/02/13 00:22:59;;;;;;;8.25;1.50;;;;;;;;;;5056023;28;20029;-56
2024/02/13 00:25:26;;;;;;;6.60;1.42;;;;;;;;;;5055463;28;20040;-57
2024/02/13 00:27:52;;;;;;;3.67;1.00;;;;;;;;;;5056110;28;20029;-57
2024/02/13 00:30:19;;;;;;;4.78;1.75;;;;;;;;;;5056023;28;20051;-58
2024/02/13 00:32:45;;;;;;;6.40;1.60;;;;;;;;;;5055396;28;20029;-56
2024/02/13 00:35:13;;;;;;;4.70;1.45;;;;;;;;;;5055477;28;20024;-57
2024/02/13 00:37:39;;;;;;;5.47;1.38;;;;;;;;;;5055351;28;20040;-58
2024/02/13 00:40:05;;;;;;;6.03;1.42;;;;;;;;;;5055795;28;20049;-57
2024/02/13 00:42:35;;;;;;;3.20;1.80;;;;;;;;;;5055194;28;20060;-58
2024/02/13 00:45:05;;;;;;;4.80;2.30;;;;;;;;;;5055815;28;20108;-57
2024/02/13 00:47:31;;;;;;;2.95;1.67;;;;;;;;;;5055192;28;20064;-57
2024/02/13 00:49:57;;;;;;;3.22;1.67;;;;;;;;;;5055674;28;20025;-56
2024/02/13 00:52:23;;;;;;;4.18;1.98;;;;;;;;;;5055832;28;20379;-58
2024/02/13 00:54:49;;;;;;;2.55;1.23;;;;;;;;;;5054993;28;20017;-57
2024/02/13 00:57:15;;;;;;;6.60;1.90;;;;;;;;;;5055228;28;20055;-57
2024/02/13 00:59:42;;;;;;;9.18;2.38;;;;;;;;;;5055732;28;20029;-58
2024/02/13 01:02:08;;;;;;;4.13;1.65;;;;;;;;;;5055568;28;20032;-58
2024/02/13 01:04:34;;;;;;;3.63;1.58;;;;;;;;;;5054770;28;20032;-57
2024/02/13 01:07:01;;;;;;;4.07;1.38;;;;;;;;;;5055515;28;20025;-56
2024/02/13 01:09:27;;;;;;;2.30;1.35;;;;;;;;;;5055274;28;20037;-57
2024/02/13 01:11:53;;;;;;;3.70;1.50;;;;;;;;;;5055180;28;20116;-57
2024/02/13 01:14:19;;;;;;;4.93;2.00;;;;;;;;;;5054323;28;20463;-56
2024/02/13 01:16:45;;;;;;;6.03;1.67;;;;;;;;;;5054576;28;20120;-56
2024/02/13 01:19:12;;;;;;;6.45;1.45;;;;;;;;;;5054595;28;20112;-58
2024/02/13 01:21:38;;;;;;;3.17;1.70;;;;;;;;;;5055201;28;20044;-58
2024/02/13 01:24:04;;;;;;;4.10;1.55;;;;;;;;;;5055140;28;20064;-57
2024/02/13 01:26:30;;;;;;;2.75;1.23;;;;;;;;;;5054352;28;20033;-57
2024/02/13 01:28:57;;;;;;;2.30;1.02;;;;;;;;;;5054407;28;20044;-58
2024/02/13 01:31:22;;;;;;;5.85;1.83;;;;;;;;;;5053766;28;20471;-57
2024/02/13 01:33:48;;;;;;;3.13;1.42;;;;;;;;;;5053948;28;20044;-58
2024/02/13 01:36:17;;;;;;;2.45;1.77;;;;;;;;;;5054827;28;20028;-56
2024/02/13 01:38:43;;;;;;;3.42;1.35;;;;;;;;;;5054752;28;20033;-57
2024/02/13 01:41:09;;;;;;;11.40;1.98;;;;;;;;;;5054732;28;20039;-57
2024/02/13 01:43:35;;;;;;;3.35;2.00;;;;;;;;;;5054033;28;20546;-57
2024/02/13 01:46:05;;;;;;;3.97;1.60;;;;;;;;;;5053836;28;20112;-56
2024/02/13 01:48:31;;;;;;;3.65;1.30;;;;;;;;;;5054665;28;20029;-57
2024/02/13 01:51:00;;;;;;;4.15;1.65;;;;;;;;;;5053756;28;20495;-57
2024/02/13 01:53:29;;;;;;;2.22;1.30;;;;;;;;;;5053863;28;20060;-56
2024/02/13 01:55:57;;;;;;;2.05;1.10;;;;;;;;;;5053850;28;20044;-56
2024/02/13 01:58:26;;;;;;;3.47;1.40;;;;;;;;;;5053555;28;20430;-58
2024/02/13 02:01:11;;;;;;;4.53;1.92;;;;;;;;;;5053820;28;20057;-58
2024/02/13 02:03:37;;;;;;;2.80;1.63;;;;;;;;;;5054264;28;20029;-55
2024/02/13 02:06:03;;;;;;;8.30;1.85;;;;;;;;;;5053805;28;20037;-55
2024/02/13 02:08:29;;;;;;;5.85;1.92;;;;;;;;;;5053678;28;20029;-58
2024/02/13 02:10:58;;;;;;;7.55;1.52;;;;;;;;;;5054513;28;20110;-58
2024/02/13 02:13:31;;;;;;;4.57;1.60;;;;;;;;;;5053965;28;20029;-58
2024/02/13 02:15:57;;;;;;;4.63;1.33;;;;;;;;;;5054167;28;20390;-58
2024/02/13 02:18:26;;;;;;;5.38;1.90;;;;;;;;;;5054226;28;20028;-56
2024/02/13 02:20:52;;;;;;;11.55;1.70;;;;;;;;;;5053516;28;20398;-57
2024/02/13 02:23:22;;;;;;;3.58;1.92;;;;;;;;;;5053829;28;20111;-56
2024/02/13 02:25:48;;;;;;;5.43;1.58;;;;;;;;;;5053552;28;20025;-57
2024/02/13 02:28:18;;;;;;;2.72;1.35;;;;;;;;;;5052615;28;20470;-58
2024/02/13 02:30:45;;;;;;;6.82;1.55;;;;;;;;;;5054300;28;20075;-57
2024/02/13 02:33:12;;;;;;;2.50;1.27;;;;;;;;;;5053372;28;20064;-57
2024/02/13 02:35:39;;;;;;;5.70;1.60;;;;;;;;;;5053649;28;20108;-57
2024/02/13 02:38:05;;;;;;;1.45;0.90;;;;;;;;;;5054243;28;20035;-57
2024/02/13 02:40:31;;;;;;;2.58;1.10;;;;;;;;;;5053431;28;20087;-57
2024/02/13 02:42:59;;;;;;;7.00;1.42;;;;;;;;;;5053279;28;20029;-58
2024/02/13 02:45:27;;;;;;;3.65;1.17;;;;;;;;;;5053832;28;20459;-58
2024/02/13 02:47:53;;;;;;;2.72;1.48;;;;;;;;;;5053892;28;20370;-57
2024/02/13 02:50:19;;;;;;;5.68;1.83;;;;;;;;;;5053333;28;20029;-58
2024/02/13 02:52:45;;;;;;;2.78;1.33;;;;;;;;;;5052931;28;20039;-57
2024/02/13 02:55:11;;;;;;;3.50;1.35;;;;;;;;;;5053260;28;20025;-58
2024/02/13 02:57:38;;;;;;;3.20;1.27;;;;;;;;;;5054192;28;20052;-57
2024/02/13 03:00:06;;;;;;;3.28;1.20;;;;;;;;;;5053294;28;20113;-57
2024/02/13 03:02:32;;;;;;;5.28;1.48;;;;;;;;;;5053359;28;20112;-57
2024/02/13 03:04:59;;;;;;;5.63;1.65;;;;;;;;;;5053566;28;20033;-55
2024/02/13 03:07:25;;;;;;;3.03;1.35;;;;;;;;;;5053220;28;20468;-57
2024/02/13 03:09:52;;;;;;;9.70;1.23;;;;;;;;;;5053199;28;20031;-58
2024/02/13 03:12:18;;;;;;;2.88;1.17;;;;;;;;;;5053125;28;20025;-58
2024/02/13 03:14:44;;;;;;;6.30;1.48;;;;;;;;;;5053120;28;20551;-54
2024/02/13 03:17:11;;;;;;;7.18;1.63;;;;;;;;;;5053654;28;20032;-57
2024/02/13 03:19:38;;;;;;;3.58;1.40;;;;;;;;;;5055690;28;20068;-57
2024/02/13 03:22:04;;;;;;;2.35;0.95;;;;;;;;;;5056814;28;20021;-57
2024/02/13 03:24:30;;;;;;;2.90;1.15;;;;;;;;;;5056502;28;20398;-58
2024/02/13 03:26:56;;;;;;;4.07;1.20;;;;;;;;;;5057211;28;20036;-55
2024/02/13 03:29:24;;;;;;;1.98;1.33;;;;;;;;;;5057049;28;20069;-56
2024/02/13 03:31:50;;;;;;;2.78;1.40;;;;;;;;;;5056787;28;20375;-58
2024/02/13 03:34:16;;;;;;;3.65;1.50;;;;;;;;;;5057004;28;20032;-55
2024/02/13 03:36:42;;;;;;;2.22;1.30;;;;;;;;;;5056232;28;20025;-57
2024/02/13 03:39:08;;;;;;;6.25;1.17;;;;;;;;;;5056793;28;20052;-56
2024/02/13 03:41:41;;;;;;;3.90;1.02;;;;;;;;;;5056135;28;20025;-57
2024/02/13 03:44:10;;;;;;;4.18;1.30;;;;;;;;;;5057070;28;20032;-58
2024/02/13 03:46:36;;;;;;;5.38;1.55;;;;;;;;;;5056877;28;20033;-58
2024/02/13 03:49:02;;;;;;;4.80;1.30;;;;;;;;;;5056288;28;20055;-58
2024/02/13 03:51:28;;;;;;;4.03;1.30;;;;;;;;;;5056228;28;20024;-57
2024/02/13 03:53:53;;;;;;;8.27;1.58;;;;;;;;;;5056157;28;20064;-57
2024/02/13 03:56:19;;;;;;;2.53;1.15;;;;;;;;;;5056521;28;20056;-58
2024/02/13 03:58:45;;;;;;;2.40;1.27;;;;;;;;;;5056132;28;20087;-57
2024/02/13 04:01:11;;;;;;;5.72;2.13;;;;;;;;;;5056594;28;20067;-58
2024/02/13 04:03:38;;;;;;;3.33;1.30;;;;;;;;;;5056666;28;20029;-57
2024/02/13 04:06:04;;;;;;;1.95;1.10;;;;;;;;;;5056621;28;20035;-56
2024/02/13 04:08:30;;;;;;;2.50;1.58;;;;;;;;;;5056041;28;20403;-56
2024/02/13 04:10:56;;;;;;;1.75;0.68;;;;;;;;;;5055894;28;20025;-58
2024/02/13 04:13:22;;;;;;;5.25;1.00;;;;;;;;;;5055953;28;20033;-58
2024/02/13 04:16:01;;;;;;;2.55;1.00;;;;;;;;;;5055879;28;20131;-58
2024/02/13 04:18:27;;;;;;;2.10;1.00;;;;;;;;;;5056370;28;20415;-58
2024/02/13 04:20:53;;;;;;;2.72;1.20;;;;;;;;;;5056157;28;20159;-58
2024/02/13 04:23:19;;;;;;;4.22;1.88;;;;;;;;;;5055262;28;20471;-58
2024/02/13 04:25:55;;;;;;;2.40;1.38;;;;;;;;;;5055628;28;20039;-58
2024/02/13 04:28:22;;;;;;;4.50;1.23;;;;;;;;;;5056110;28;20340;-57
2024/02/13 04:30:48;;;;;;;5.70;1.17;;;;;;;;;;5054735;28;20175;-58
2024/02/13 04:33:14;;;;;;;3.85;0.80;;;;;;;;;;5055427;28;20029;-58
2024/02/13 04:35:40;;;;;;;2.85;1.17;;;;;;;;;;5055217;28;20471;-57
2024/02/13 04:38:07;;;;;;;2.35;1.48;;;;;;;;;;5055867;28;20056;-58
2024/02/13 04:40:33;;;;;;;7.50;1.50;;;;;;;;;;5055356;28;20033;-58
2024/02/13 04:43:02;;;;;;;1.35;0.77;;;;;;;;;;5055136;28;20061;-58
2024/02/13 04:45:28;;;;;;;3.83;1.17;;;;;;;;;;5055256;28;20029;-58
2024/02/13 04:47:55;;;;;;;3.13;1.38;;;;;;;;;;5055733;28;20433;-58
2024/02/13 04:50:20;;;;;;;1.52;0.60;;;;;;;;;;5055161;28;20061;-57
2024/02/13 04:52:46;;;;;;;2.17;1.17;;;;;;;;;;5054853;28;20060;-58
2024/02/13 04:55:12;;;;;;;3.70;1.25;;;;;;;;;;5053787;28;20409;-54
2024/02/13 04:57:38;;;;;;;5.90;1.65;;;;;;;;;;5054843;28;20049;-58
2024/02/13 05:00:24;;;;;;;1.50;0.90;;;;;;;;;;5055006;28;20064;-58
2024/02/13 05:03:03;;;;;;;6.53;1.75;;;;;;;;;;5055780;28;20029;-58
2024/02/13 05:08:14;;;;;;;3.22;1.55;;;;;;;;;;5055079;28;20040;-58
2024/02/13 05:10:41;;;;;;;7.47;2.15;;;;;;;;;;5054950;28;20099;-58
2024/02/13 05:13:08;;;;;;;4.82;1.38;;;;;;;;;;5055378;28;20055;-58
2024/02/13 05:15:35;;;;;;;3.55;1.48;;;;;;;;;;5055306;28;20028;-57
2024/02/13 05:18:01;;;;;;;2.35;1.33;;;;;;;;;;5055318;28;20104;-58
2024/02/13 05:20:26;;;;;;;4.53;1.52;;;;;;;;;;5054604;28;20108;-58
2024/02/13 05:22:53;;;;;;;3.47;1.80;;;;;;;;;;5054794;28;20032;-57
2024/02/13 05:25:19;;;;;;;11.70;2.00;;;;;;;;;;5055052;28;20029;-58
2024/02/13 05:27:48;;;;;;;4.05;1.73;;;;;;;;;;5055042;28;20021;-57
2024/02/13 05:30:15;;;;;;;3.40;2.10;;;;;;;;;;5055324;28;20029;-56
2024/02/13 05:32:41;;;;;;;2.92;1.38;;;;;;;;;;5054646;28;20171;-58
2024/02/13 05:35:08;;;;;;;2.95;1.55;;;;;;;;;;5054097;28;20485;-58
2024/02/13 05:37:35;;;;;;;2.95;1.48;;;;;;;;;;5054362;28;20028;-57
2024/02/13 05:40:00;;;;;;;6.95;1.80;;;;;;;;;;5054807;28;20021;-58
2024/02/13 05:42:27;;;;;;;3.55;1.83;;;;;;;;;;5054156;28;20480;-57
2024/02/13 05:44:53;;;;;;;3.53;1.30;;;;;;;;;;5054256;28;20123;-56
2024/02/13 05:47:21;;;;;;;3.22;1.73;;;;;;;;;;5054215;28;20405;-57
2024/02/13 05:49:52;;;;;;;4.70;1.27;;;;;;;;;;5054716;28;20021;-58
2024/02/13 05:52:18;;;;;;;3.15;1.75;;;;;;;;;;5054146;28;20017;-58
2024/02/13 05:54:44;;;;;;;3.22;1.60;;;;;;;;;;5054178;28;20481;-56
2024/02/13 05:57:10;;;;;;;8.40;2.03;;;;;;;;;;5054031;28;20055;-58
2024/02/13 05:59:36;;;;;;;1.45;1.00;;;;;;;;;;5054509;28;20116;-58
2024/02/13 06:02:03;;;;;;;1.60;0.82;;;;;;;;;;5053921;28;20025;-58
2024/02/13 06:04:29;;;;;;;4.00;2.03;;;;;;;;;;5054362;28;20068;-55
2024/02/13 06:06:55;;;;;;;3.72;1.80;;;;;;;;;;5054448;28;20052;-57
2024/02/13 06:09:24;;;;;;;3.58;1.52;;;;;;;;;;5054491;28;20478;-54
2024/02/13 06:11:50;;;;;;;3.97;1.52;;;;;;;;;;5053888;28;20386;-57
2024/02/13 06:14:16;;;;;;;3.60;1.80;;;;;;;;;;5054256;28;20036;-55
2024/02/13 06:16:42;;;;;;;3.80;1.50;;;;;;;;;;5053764;28;20029;-55
2024/02/13 06:19:10;;;;;;;4.22;1.65;;;;;;;;;;5054073;28;20025;-55
2024/02/13 06:21:36;;;;;;;4.22;1.67;;;;;;;;;;5053288;28;20487;-56
2024/02/13 06:24:02;;;;;;;6.35;2.42;;;;;;;;;;5053629;28;20033;-55
2024/02/13 06:26:30;;;;;;;2.75;1.10;;;;;;;;;;5054149;28;20400;-57
2024/02/13 06:28:56;;;;;;;5.68;2.25;;;;;;;;;;5054393;28;20021;-55
2024/02/13 06:31:22;;;;;;;4.35;1.58;;;;;;;;;;5054031;28;20029;-53
2024/02/13 06:33:50;;;;;;;4.72;2.05;;;;;;;;;;5053487;28;20486;-56
2024/02/13 06:36:17;;;;;;;2.95;1.40;;;;;;;;;;5053974;28;20087;-57
2024/02/13 06:38:42;;;;;;;3.88;1.80;;;;;;;;;;5053795;28;20447;-55
2024/02/13 06:41:10;;;;;;;3.53;1.50;;;;;;;;;;5053965;28;20078;-55
2024/02/13 06:43:36;;;;;;;2.45;1.80;;;;;;;;;;5052984;28;20502;-56
2024/02/13 06:46:03;;;;;;;2.78;1.35;;;;;;;;;;5053439;28;20033;-54
2024/02/13 06:48:28;;;;;;;3.28;1.85;;;;;;;;;;5053703;28;20052;-57
2024/02/13 06:50:55;;;;;;;3.80;2.25;;;;;;;;;;5053317;28;20021;-57
2024/02/13 06:53:20;;;;;;;8.43;2.47;;;;;;;;;;5053556;28;20036;-57
2024/02/13 06:55:46;;;;;;;3.88;2.35;;;;;;;;;;5057970;28;20378;-58
2024/02/13 06:58:16;;;;;;;2.60;1.40;;;;;;;;;;5057862;28;20479;-56
2024/02/13 07:00:42;;;;;;;4.68;2.35;;;;;;;;;;5057246;28;20474;-56
2024/02/13 07:03:08;;;;;;;3.92;1.70;;;;;;;;;;5057075;28;20095;-57
2024/02/13 07:05:34;;;;;;;6.35;2.13;;;;;;;;;;5057126;28;20037;-57
2024/02/13 07:08:00;;;;;;;2.65;1.50;;;;;;;;;;5057470;28;20072;-57
2024/02/13 07:10:26;;;;;;;6.80;1.90;;;;;;;;;;5056941;28;20027;-56
2024/02/13 07:12:52;;;;;;;5.72;1.52;;;;;;;;;;5057093;28;20481;-55
2024/02/13 07:15:18;;;;;;;3.95;2.78;;;;;;;;;;5057723;28;20024;-56
2024/02/13 07:17:44;;;;;;;5.35;2.65;;;;;;;;;;5056765;28;20036;-57
2024/02/13 07:20:13;;;;;;;4.80;1.98;;;;;;;;;;5056998;28;20107;-58
2024/02/13 07:22:39;;;;;;;6.28;1.95;;;;;;;;;;5056607;28;20094;-54
2024/02/13 07:25:08;;;;;;;3.63;1.95;;;;;;;;;;5056629;28;20446;-55
2024/02/13 07:27:35;;;;;;;2.63;1.60;;;;;;;;;;5056527;28;20078;-57
2024/02/13 07:30:01;;;;;;;3.72;2.08;;;;;;;;;;5056518;28;20025;-57
2024/02/13 07:32:27;;;;;;;5.20;2.17;;;;;;;;;;5056993;28;20033;-57
2024/02/13 07:34:53;;;;;;;3.83;1.92;;;;;;;;;;5056920;28;20094;-55
2024/02/13 07:37:20;;;;;;;5.68;2.58;;;;;;;;;;5057173;28;20052;-57
2024/02/13 07:39:46;;;;;;;7.40;2.20;;;;;;;;;;5057447;28;20383;-57
2024/02/13 07:42:12;;;;;;;3.90;1.88;;;;;;;;;;5056535;28;20028;-56
2024/02/13 07:44:38;;;;;;;5.68;2.28;;;;;;;;;;5056369;28;20021;-57
2024/02/13 07:47:04;;;;;;;5.60;1.52;;;;;;;;;;5056401;28;20094;-57
2024/02/13 07:49:33;;;;;;;3.75;1.67;;;;;;;;;;5056472;28;20029;-57
2024/02/13 07:51:59;;;;;;;3.70;1.85;;;;;;;;;;5056920;28;20021;-57
2024/02/13 07:54:28;;;;;;;2.53;1.40;;;;;;;;;;5056657;28;20033;-56
2024/02/13 07:56:54;;;;;;;3.35;1.35;;;;;;;;;;5056315;28;20463;-57
2024/02/13 07:59:23;;;;;;;3.85;2.13;;;;;;;;;;5056770;28;20028;-57
2024/02/13 08:01:49;;;;;;;5.75;2.13;;;;;;;;;;5056160;28;20376;-55
2024/02/13 08:04:15;;;;;;;4.43;1.88;;;;;;;;;;5056274;28;20033;-56
2024/02/13 08:06:41;;;;;;;8.05;2.25;;;;;;;;;;5054668;28;20025;-57
2024/02/13 08:09:07;;;;;;;2.58;1.30;;;;;;;;;;5056631;28;20028;-54
2024/02/13 08:11:33;;;;;;;4.88;1.60;;;;;;;;;;5056010;28;20025;-57
2024/02/13 08:13:59;;;;;;;4.85;2.05;;;;;;;;;;5056227;28;20021;-56
2024/02/13 08:16:29;;;;;;;4.32;2.03;;;;;;;;;;5056012;28;20370;-57
2024/02/13 08:18:55;;;;;;;4.43;1.73;;;;;;;;;;5056280;28;20075;-57
2024/02/13 08:21:22;;;;;;;5.57;2.05;;;;;;;;;;5055665;28;20035;-57
2024/02/13 08:23:48;;;;;;;4.05;2.42;;;;;;;;;;5055708;28;20065;-56
2024/02/13 08:26:14;;;;;;;3.08;1.83;;;;;;;;;;5055427;28;20136;-56
2024/02/13 08:28:43;;;;;;;2.97;1.60;;;;;;;;;;5056305;28;20040;-57
2024/02/13 08:31:09;;;;;;;3.08;1.25;;;;;;;;;;5055546;28;20100;-56
2024/02/13 08:33:35;;;;;;;4.75;2.15;;;;;;;;;;5055903;28;20033;-58
2024/02/13 08:36:02;;;;;;;5.05;1.67;;;;;;;;;;5056013;28;20040;-56
2024/02/13 08:38:28;;;;;;;3.35;1.92;;;;;;;;;;5055494;28;20028;-54
2024/02/13 08:40:54;;;;;;;9.32;3.45;;;;;;;;;;5056127;28;20032;-55
2024/02/13 08:43:21;;;;;;;3.45;1.80;;;;;;;;;;5055122;28;20040;-56
2024/02/13 08:45:47;;;;;;;4.03;2.22;;;;;;;;;;5055707;28;20048;-55
2024/02/13 08:48:14;;;;;;;5.03;1.70;;;;;;;;;;5055282;28;20025;-56
2024/02/13 08:50:43;;;;;;;6.22;1.92;;;;;;;;;;5055240;28;20029;-57
2024/02/13 08:53:09;;;;;;;2.90;1.27;;;;;;;;;;5055192;28;20033;-57
2024/02/13 08:55:35;;;;;;;3.95;1.88;;;;;;;;;;5055151;28;20398;-56
2024/02/13 08:58:01;;;;;;;6.13;1.80;;;;;;;;;;5055456;28;20021;-56
2024/02/13 09:00:28;;;;;;;5.20;1.50;;;;;;;;;;5055342;28;20447;-56
2024/02/13 09:02:58;;;;;;;2.75;1.45;;;;;;;;;;5055510;28;20091;-56
2024/02/13 09:05:24;;;;;;;3.73;1.50;;;;;;;;;;5055312;28;20039;-56
2024/02/13 09:07:50;;;;;;;3.28;1.67;;;;;;;;;;5055548;28;20247;-56
2024/02/13 09:10:16;;;;;;;3.08;1.35;;;;;;;;;;5054566;28;20024;-55
2024/02/13 09:12:45;;;;;;;4.35;1.75;;;;;;;;;;5054731;28;20036;-56
2024/02/13 09:15:11;;;;;;;2.88;1.55;;;;;;;;;;5054996;28;20066;-56
2024/02/13 09:17:47;;;;;;;3.97;1.83;;;;;;;;;;5054336;28;20021;-56
2024/02/13 09:20:14;;;;;;;5.05;1.90;;;;;;;;;;5055200;28;20103;-56
2024/02/13 09:22:44;;;;;;;2.08;1.02;;;;;;;;;;5054501;28;20107;-57
2024/02/13 09:25:14;;;;;;;4.28;1.92;;;;;;;;;;5055192;28;20633;-57
2024/02/13 09:27:40;;;;;;;3.53;1.73;;;;;;;;;;5055174;28;20068;-55
2024/02/13 09:30:07;;;;;;;2.67;1.52;;;;;;;;;;5054960;28;20070;-55
2024/02/13 09:32:36;;;;;;;3.15;1.50;;;;;;;;;;5054118;28;20027;-55
2024/02/13 09:35:05;;;;;;;3.88;1.70;;;;;;;;;;5054410;28;20091;-57
2024/02/13 09:37:32;;;;;;;3.17;1.38;;;;;;;;;;5054116;28;20024;-53
2024/02/13 09:39:58;;;;;;;2.03;1.10;;;;;;;;;;5055208;28;20063;-54
2024/02/13 09:42:25;;;;;;;6.22;1.35;;;;;;;;;;5054336;28;20024;-55
2024/02/13 09:44:52;;;;;;;2.60;0.88;;;;;;;;;;5054996;28;20116;-54
2024/02/13 09:47:18;;;;;;;1.92;0.80;;;;;;;;;;5054568;28;20043;-53
2024/02/13 09:49:46;;;;;;;1.58;0.80;;;;;;;;;;5054837;28;20029;-56
2024/02/13 09:52:14;;;;;;;3.17;1.42;;;;;;;;;;5054203;28;20028;-52
2024/02/13 09:54:44;;;;;;;1.80;0.77;;;;;;;;;;5054355;28;20033;-54
2024/02/13 09:57:10;;;;;;;1.65;0.93;;;;;;;;;;5052918;28;20055;-55
2024/02/13 09:59:37;;;;;;;1.50;0.88;;;;;;;;;;5053967;28;20025;-55
2024/02/13 10:02:05;;;;;;;2.03;0.77;;;;;;;;;;5053656;28;20360;-51
2024/02/13 10:04:31;;;;;;;1.83;0.85;;;;;;;;;;5054430;28;20033;-54
2024/02/13 10:07:00;;;;;;;2.38;1.05;;;;;;;;;;5053875;28;20029;-54
2024/02/13 10:09:28;;;;;;;5.15;1.13;;;;;;;;;;5054222;28;20033;-54
2024/02/13 10:11:54;;;;;;;2.25;0.73;;;;;;;;;;5053479;28;20040;-56
2024/02/13 10:14:21;;;;;;;2.22;0.77;;;;;;;;;;5054166;28;20025;-56
2024/02/13 10:16:50;;;;;;;1.77;0.95;;;;;;;;;;5053822;28;20029;-55
2024/02/13 10:19:22;;;;;;;2.83;1.10;;;;;;;;;;5054351;28;20459;-56
2024/02/13 10:21:53;;;;;;;2.67;0.90;;;;;;;;;;5053619;28;20503;-54
2024/02/13 10:24:22;;;;;;;2.67;1.17;;;;;;;;;;5053684;28;20063;-57
2024/02/13 10:26:48;;;;;;;7.15;1.10;;;;;;;;;;5053673;28;20029;-56
2024/02/13 10:29:14;;;;;;;2.20;0.90;;;;;;;;;;5053559;28;20433;-55
2024/02/13 10:31:40;;;;;;;2.13;1.08;;;;;;;;;;5053644;28;20021;-57
2024/02/13 10:34:11;;;;;;;2.83;0.68;;;;;;;;;;5053673;28;20037;-55
2024/02/13 10:36:38;;;;;;;1.67;1.02;;;;;;;;;;5054504;28;20032;-54
2024/02/13 10:39:08;;;;;;;1.95;0.80;;;;;;;;;;5053689;28;20086;-55
2024/02/13 10:41:39;;;;;;;2.67;0.93;;;;;;;;;;5053774;28;20455;-56
2024/02/13 10:44:06;;;;;;;2.85;0.80;;;;;;;;;;5053996;28;20029;-57
2024/02/13 10:46:33;;;;;;;1.58;0.57;;;;;;;;;;5053552;28;20072;-55
2024/02/13 10:49:17;;;;;;;2.13;1.08;;;;;;;;;;5053526;28;20021;-56
2024/02/13 10:51:44;;;;;;;4.15;0.80;;;;;;;;;;5053557;28;20047;-55
2024/02/13 10:54:12;;;;;;;1.33;0.75;;;;;;;;;;5053254;28;20031;-56
2024/02/13 10:56:39;;;;;;;3.90;1.48;;;;;;;;;;5053921;28;20049;-56
2024/02/13 10:59:06;;;;;;;2.05;0.98;;;;;;;;;;5053259;28;20064;-54
2024/02/13 11:01:34;;;;;;;3.47;0.90;;;;;;;;;;5053807;28;20021;-54
2024/02/13 11:04:01;;;;;;;4.60;0.80;;;;;;;;;;5052934;28;20038;-54
2024/02/13 11:06:28;;;;;;;1.83;1.02;;;;;;;;;;5053789;28;20029;-50
2024/02/13 11:08:54;;;;;;;2.38;0.95;;;;;;;;;;5053179;28;20029;-55
2024/02/13 11:11:23;;;;;;;1.80;0.90;;;;;;;;;;5053229;28;20029;-52
2024/02/13 11:13:50;;;;;;;2.10;0.65;;;;;;;;;;5053485;28;20033;-55
2024/02/13 11:16:18;;;;;;;3.50;0.98;;;;;;;;;;5053053;28;20053;-57
2024/02/13 11:18:48;;;;;;;2.58;0.90;;;;;;;;;;5054038;28;20108;-56
2024/02/13 11:21:19;;;;;;;1.70;0.80;;;;;;;;;;5053015;28;20033;-56
2024/02/13 11:24:00;;;;;;;2.65;1.08;;;;;;;;;;5053032;28;20043;-56
2024/02/13 11:26:34;;;;;;;0.82;0.40;;;;;;;;;;5052696;28;20029;-56
2024/02/13 11:29:09;;;;;;;1.27;0.68;;;;;;;;;;5053494;28;20047;-57
2024/02/13 11:31:35;;;;;;;1.30;0.60;;;;;;;;;;5053400;28;20370;-52
2024/02/13 11:34:05;;;;;;;2.75;0.60;;;;;;;;;;5053593;28;20029;-55
2024/02/13 11:36:35;;;;;;;1.27;0.55;;;;;;;;;;5053884;28;20029;-56
2024/02/13 11:39:08;;;;;;;1.45;0.50;;;;;;;;;;5053650;28;20461;-57
2024/02/13 11:41:34;;;;;;;3.78;0.60;;;;;;;;;;5056580;28;20036;-57
2024/02/13 11:44:11;;;;;;;1.10;0.50;;;;;;;;;;5056854;28;20049;-56
2024/02/13 11:46:38;;;;;;;1.63;0.73;;;;;;;;;;5056821;28;20438;-57
2024/02/13 11:49:07;;;;;;;0.80;0.50;;;;;;;;;;5056231;28;20034;-52
2024/02/13 11:51:33;;;;;;;1.20;0.60;;;;;;;;;;5056399;28;20029;-57
2024/02/13 11:53:59;;;;;;;2.55;0.77;;;;;;;;;;5057011;28;20419;-56
2024/02/13 11:56:25;;;;;;;1.80;0.80;;;;;;;;;;5056818;28;20080;-56
2024/02/13 11:58:56;;;;;;;1.63;0.60;;;;;;;;;;5056306;28;20025;-57
2024/02/13 12:01:23;;;;;;;2.85;0.88;;;;;;;;;;5056244;28;20060;-55
2024/02/13 12:03:49;;;;;;;1.45;0.50;;;;;;;;;;5055844;28;20451;-57
2024/02/13 12:06:15;;;;;;;1.17;0.52;;;;;;;;;;5055653;28;20035;-56
2024/02/13 12:08:44;;;;;;;1.48;0.70;;;;;;;;;;5056964;28;20029;-56
2024/02/13 12:11:10;;;;;;;1.90;0.70;;;;;;;;;;5056873;28;20032;-55
2024/02/13 12:13:36;;;;;;;1.05;0.30;;;;;;;;;;5055939;28;20036;-55
2024/02/13 12:16:04;;;;;;;1.30;0.55;;;;;;;;;;5056139;28;20032;-57
2024/02/13 12:18:30;;;;;;;1.20;0.57;;;;;;;;;;5056231;28;20478;-58
2024/02/13 12:20:56;;;;;;;6.35;0.82;;;;;;;;;;5056109;28;20064;-57
2024/02/13 12:23:23;;;;;;;0.82;0.32;;;;;;;;;;5055709;28;20087;-57
2024/02/13 12:26:00;;;;;;;1.27;0.52;;;;;;;;;;5055748;28;20067;-57
2024/02/13 12:28:26;;;;;;;0.82;0.30;;;;;;;;;;5055697;28;20120;-56
2024/02/13 12:30:54;;;;;;;1.23;0.68;;;;;;;;;;5056006;28;20065;-57
2024/02/13 12:33:20;;;;;;;0.63;0.35;;;;;;;;;;5055634;28;20041;-56
2024/02/13 12:36:02;;;;;;;1.75;0.68;;;;;;;;;;5055840;28;20025;-58
2024/02/13 12:38:28;;;;;;;1.67;0.45;;;;;;;;;;5056119;28;20024;-57
2024/02/13 12:40:54;;;;;;;1.08;0.43;;;;;;;;;;5055387;28;20091;-57
2024/02/13 12:43:26;;;;;;;1.27;0.68;;;;;;;;;;5055340;28;20033;-57
2024/02/13 12:45:55;;;;;;;2.00;0.52;;;;;;;;;;5055912;28;20036;-57
2024/02/13 12:48:21;;;;;;;2.40;0.70;;;;;;;;;;5055428;28;20130;-55
2024/02/13 12:50:47;;;;;;;0.55;0.32;;;;;;;;;;5055416;28;20124;-56
2024/02/13 12:53:16;;;;;;;0.45;0.13;;;;;;;;;;5054790;28;20032;-58
2024/02/13 12:55:42;;;;;;;0.73;0.45;;;;;;;;;;5055137;28;20028;-57
2024/02/13 12:58:11;;;;;;;1.85;0.43;;;;;;;;;;5056060;28;20036;-56
2024/02/13 13:00:40;;;;;;;1.50;0.50;;;;;;;;;;5055181;28;20028;-53
2024/02/13 13:03:10;;;;;;;1.92;0.85;;;;;;;;;;5054929;28;20068;-57
2024/02/13 13:05:41;;;;;;;1.30;0.45;;;;;;;;;;5055054;28;20041;-55
2024/02/13 13:08:14;;;;;;;1.33;0.68;;;;;;;;;;5055055;28;20072;-56
2024/02/13 13:10:42;;;;;;;0.45;0.20;;;;;;;;;;5055767;28;20021;-58
2024/02/13 13:13:10;;;;;;;0.60;0.15;;;;;;;;;;5054885;28;20085;-57
2024/02/13 13:15:38;;;;;;;1.25;0.50;;;;;;;;;;5054748;28;20040;-57
2024/02/13 13:18:04;;;;;;;1.48;0.50;;;;;;;;;;5055360;28;20086;-57
2024/02/13 13:20:30;;;;;;;1.58;0.40;;;;;;;;;;5054730;28;20033;-55
2024/02/13 13:23:00;;;;;;;0.85;0.25;;;;;;;;;;5054937;28;20021;-56
2024/02/13 13:25:31;;;;;;;0.87;0.33;;;;;;;;;;5054576;28;20414;-55
2024/02/13 13:28:05;;;;;;;3.95;0.55;;;;;;;;;;5055483;28;20247;-54
2024/02/13 13:30:35;;;;;;;0.88;0.50;;;;;;;;;;5055461;28;20038;-56
2024/02/13 13:33:02;;;;;;;4.63;0.57;;;;;;;;;;5053392;28;20040;-55
2024/02/13 13:35:28;;;;;;;1.27;0.40;;;;;;;;;;5054445;28;20053;-53
2024/02/13 13:37:54;;;;;;;1.30;0.60;;;;;;;;;;5054734;28;20092;-56
2024/02/13 13:40:21;;;;;;;1.13;0.47;;;;;;;;;;5054346;28;20036;-57
2024/02/13 13:42:48;;;;;;;0.88;0.40;;;;;;;;;;5055071;28;20025;-56
2024/02/13 13:45:17;;;;;;;0.82;0.40;;;;;;;;;;5054307;28;20111;-57
2024/02/13 13:47:43;;;;;;;1.02;0.30;;;;;;;;;;5054221;28;20036;-57
2024/02/13 13:50:10;;;;;;;0.88;0.45;;;;;;;;;;5054795;28;20036;-56
2024/02/13 13:52:37;;;;;;;1.00;0.50;;;;;;;;;;5054492;28;20462;-57
2024/02/13 13:55:03;;;;;;;1.45;0.60;;;;;;;;;;5054032;28;20422;-55
2024/02/13 13:57:29;;;;;;;1.15;0.20;;;;;;;;;;5054676;28;20049;-57
2024/02/13 13:59:58;;;;;;;1.42;0.40;;;;;;;;;;5054536;28;20086;-57
2024/02/13 14:02:25;;;;;;;3.42;0.50;;;;;;;;;;5054405;28;20029;-57
2024/02/13 14:04:52;;;;;;;0.40;0.20;;;;;;;;;;5053172;28;20123;-57
2024/02/13 14:07:19;;;;;;;0.75;0.38;;;;;;;;;;5053675;28;20551;-56
2024/02/13 14:09:46;;;;;;;1.27;0.30;;;;;;;;;;5053764;28;20033;-56
2024/02/13 14:12:12;;;;;;;3.22;0.63;;;;;;;;;;5053858;28;20366;-56
2024/02/13 14:14:38;;;;;;;1.05;0.38;;;;;;;;;;5053465;28;20037;-57
2024/02/13 14:17:06;;;;;;;1.92;0.40;;;;;;;;;;5054288;28;20040;-58
2024/02/13 14:19:32;;;;;;;0.88;0.43;;;;;;;;;;5054480;28;20029;-55
2024/02/13 14:21:59;;;;;;;1.02;0.35;;;;;;;;;;5053766;28;20032;-57
2024/02/13 14:24:25;;;;;;;1.20;0.55;;;;;;;;;;5053818;28;20478;-57
2024/02/13 14:26:51;;;;;;;0.77;0.50;;;;;;;;;;5053801;28;20033;-57
2024/02/13 14:29:17;;;;;;;0.85;0.43;;;;;;;;;;5053678;28;20052;-57
2024/02/13 14:31:44;;;;;;;1.88;0.40;;;;;;;;;;5053674;28;20402;-56
2024/02/13 14:34:10;;;;;;;2.70;0.47;;;;;;;;;;5054131;28;20035;-57
2024/02/13 14:36:37;;;;;;;1.17;0.65;;;;;;;;;;5053628;28;20053;-57
2024/02/13 14:39:06;;;;;;;0.60;0.30;;;;;;;;;;5054464;28;20036;-56
2024/02/13 14:41:33;;;;;;;1.40;0.55;;;;;;;;;;5053580;28;20048;-56
2024/02/13 14:43:59;;;;;;;1.33;0.30;;;;;;;;;;5053302;28;20075;-57
2024/02/13 14:46:25;;;;;;;0.60;0.20;;;;;;;;;;5053150;28;20021;-57